createdAt,value
2018-09-05T00:02:13.870Z,26.00
2018-09-05T00:07:17.925Z,25.40
2018-09-05T00:09:51.580Z,26.60
2018-09-05T00:12:20.576Z,27.53
2018-09-05T00:14:54.110Z,29.40
2018-09-05T00:17:23.061Z,28.33
2018-09-05T00:19:58.901Z,26.57
2018-09-05T00:22:27.466Z,25.73
2018-09-05T00:25:01.574Z,27.90
2018-09-05T00:27:30.548Z,28.13
2018-09-05T00:30:04.686Z,27.77
2018-09-05T00:32:33.456Z,27.67
2018-09-05T00:35:11.161Z,30.03
2018-09-05T00:37:40.110Z,30.50
2018-09-05T00:40:21.593Z,30.00
2018-09-05T00:42:50.669Z,32.63
2018-09-05T00:45:19.929Z,29.50
2018-09-05T00:47:48.869Z,29.23
2018-09-05T00:50:17.410Z,29.90
2018-09-05T00:52:46.681Z,30.33
2018-09-05T00:55:27.681Z,29.97
2018-09-05T00:57:57.005Z,33.83
2018-09-05T01:00:25.633Z,30.93
2018-09-05T01:02:54.631Z,34.27
2018-09-05T01:05:25.229Z,30.67
2018-09-05T01:07:54.225Z,31.63
2018-09-05T01:10:27.721Z,31.83
2018-09-05T01:12:56.958Z,27.00
2018-09-05T01:15:30.727Z,29.03
2018-09-05T01:17:59.727Z,33.07
2018-09-05T01:20:41.145Z,28.53
2018-09-05T01:23:10.102Z,29.17
2018-09-05T01:25:39.147Z,28.57
2018-09-05T01:28:08.125Z,29.13
2018-09-05T01:30:40.417Z,31.23
2018-09-05T01:33:09.299Z,30.00
2018-09-05T01:35:42.106Z,28.10
2018-09-05T01:38:10.752Z,30.87
2018-09-05T01:40:52.525Z,29.07
2018-09-05T01:43:21.477Z,31.77
2018-09-05T01:45:50.763Z,31.47
2018-09-05T01:48:19.786Z,29.33
2018-09-05T01:50:49.300Z,33.03
2018-09-05T01:53:18.200Z,30.50
2018-09-05T01:55:51.683Z,31.13
2018-09-05T01:58:20.236Z,31.27
2018-09-05T02:00:54.354Z,30.27
2018-09-05T02:03:23.320Z,31.93
2018-09-05T02:05:52.345Z,31.50
2018-09-05T02:08:21.576Z,32.33
2018-09-05T02:10:50.091Z,29.70
2018-09-05T02:13:19.052Z,32.17
2018-09-05T02:15:48.265Z,29.87
2018-09-05T02:18:16.758Z,29.63
2018-09-05T02:20:45.737Z,31.33
2018-09-05T02:23:14.521Z,30.63
2018-09-05T02:25:43.022Z,30.83
2018-09-05T02:28:12.190Z,27.53
2018-09-05T02:30:41.412Z,34.23
2018-09-05T02:33:22.123Z,32.03
2018-09-05T02:35:51.374Z,33.57
2018-09-05T02:38:20.322Z,29.63
2018-09-05T02:40:48.881Z,31.37
2018-09-05T02:43:24.197Z,34.50
2018-09-05T02:45:53.645Z,33.40
2018-09-05T02:48:22.932Z,33.07
2018-09-05T02:50:52.156Z,36.07
2018-09-05T02:53:24.286Z,32.27
2018-09-05T02:55:58.440Z,34.37
2018-09-05T02:58:27.231Z,34.13
2018-09-05T03:00:56.222Z,35.57
2018-09-05T03:03:29.253Z,35.00
2018-09-05T03:05:58.620Z,33.27
2018-09-05T03:08:40.209Z,34.33
2018-09-05T03:11:09.445Z,38.07
2018-09-05T03:13:37.932Z,33.27
2018-09-05T03:16:06.989Z,35.13
2018-09-05T03:18:37.068Z,35.43
2018-09-05T03:21:07.233Z,36.87
2018-09-05T03:23:48.624Z,33.97
2018-09-05T03:26:17.128Z,33.60
2018-09-05T03:28:45.632Z,37.63
2018-09-05T03:31:14.881Z,37.27
2018-09-05T03:33:44.552Z,33.43
2018-09-05T03:36:13.533Z,34.00
2018-09-05T03:38:47.241Z,37.20
2018-09-05T03:41:16.193Z,39.33
2018-09-05T03:43:50.329Z,34.27
2018-09-05T03:46:21.261Z,32.17
2018-09-05T03:48:53.725Z,35.60
2018-09-05T03:51:22.213Z,38.10
2018-09-05T03:53:56.626Z,33.47
2018-09-05T03:56:25.605Z,35.33
2018-09-05T03:58:59.435Z,35.83
2018-09-05T04:01:28.673Z,38.90
2018-09-05T04:04:01.425Z,35.47
2018-09-05T04:06:30.365Z,36.23
2018-09-05T04:09:04.940Z,38.50
2018-09-05T04:11:33.975Z,39.37
2018-09-05T04:14:07.625Z,34.63
2018-09-05T04:16:36.556Z,36.90
2018-09-05T04:19:11.188Z,34.77
2018-09-05T04:21:40.417Z,34.10
2018-09-05T04:24:21.438Z,33.73
2018-09-05T04:26:50.657Z,34.57
2018-09-05T04:29:19.233Z,35.23
2018-09-05T04:31:48.256Z,37.00
2018-09-05T04:34:19.633Z,35.73
2018-09-05T04:36:48.158Z,37.37
2018-09-05T04:39:29.140Z,32.00
2018-09-05T04:41:57.977Z,31.27
2018-09-05T04:44:26.944Z,35.57
2018-09-05T04:46:55.976Z,34.20
2018-09-05T04:49:26.103Z,36.37
2018-09-05T04:51:55.181Z,36.07
2018-09-05T04:54:28.640Z,36.60
2018-09-05T04:56:57.890Z,33.40
2018-09-05T04:59:31.261Z,35.13
2018-09-05T05:01:59.769Z,35.63
2018-09-05T05:04:33.249Z,37.23
2018-09-05T05:07:01.796Z,32.07
2018-09-05T05:09:35.507Z,34.60
2018-09-05T05:12:04.769Z,32.57
2018-09-05T05:14:40.474Z,35.80
2018-09-05T05:17:09.012Z,37.90
2018-09-05T05:19:50.153Z,38.97
2018-09-05T05:22:19.413Z,33.03
2018-09-05T05:24:48.418Z,35.30
2018-09-05T05:27:17.401Z,37.67
2018-09-05T05:29:48.781Z,33.27
2018-09-05T05:32:17.758Z,33.10
2018-09-05T05:34:58.639Z,31.03
2018-09-05T05:37:31.990Z,29.27
2018-09-05T05:40:04.984Z,34.17
2018-09-05T05:42:34.308Z,35.50
2018-09-05T05:45:03.502Z,34.03
2018-09-05T05:50:04.225Z,30.20
2018-09-05T05:52:33.200Z,35.47
2018-09-05T05:55:02.847Z,35.10
2018-09-05T05:57:31.634Z,34.27
2018-09-05T06:00:12.487Z,35.33
2018-09-05T06:02:41.017Z,31.90
2018-09-05T06:05:10.260Z,31.70
2018-09-05T06:07:39.519Z,32.97
2018-09-05T06:10:12.618Z,34.40
2018-09-05T06:12:41.871Z,34.93
2018-09-05T06:15:13.816Z,37.87
2018-09-05T06:17:42.892Z,35.50
2018-09-05T06:20:16.729Z,35.33
2018-09-05T06:22:45.773Z,32.53
2018-09-05T06:25:27.380Z,32.00
2018-09-05T06:27:57.833Z,33.97
2018-09-05T06:30:26.874Z,31.67
2018-09-05T06:32:55.963Z,32.30
2018-09-05T06:35:25.243Z,37.90
2018-09-05T06:37:54.274Z,38.03
2018-09-05T06:40:25.951Z,33.37
2018-09-05T06:42:54.452Z,36.53
2018-09-05T06:45:29.496Z,34.87
2018-09-05T06:47:57.997Z,39.23
2018-09-05T06:50:31.528Z,37.43
2018-09-05T06:53:00.897Z,40.80
2018-09-05T06:55:33.170Z,39.03
2018-09-05T06:58:02.282Z,37.27
2018-09-05T07:00:43.992Z,34.97
2018-09-05T07:03:13.037Z,45.60
2018-09-05T07:05:41.933Z,39.47
2018-09-05T07:08:10.894Z,37.80
2018-09-05T07:10:43.122Z,40.40
2018-09-05T07:13:11.937Z,38.17
2018-09-05T07:15:43.606Z,41.00
2018-09-05T07:18:12.159Z,40.67
2018-09-05T07:20:45.843Z,47.03
2018-09-05T07:23:14.843Z,43.00
2018-09-05T07:25:48.294Z,47.90
2018-09-05T07:28:17.360Z,48.33
2018-09-05T07:30:50.941Z,54.20
2018-09-05T07:33:19.936Z,58.03
2018-09-05T07:35:55.503Z,54.30
2018-09-05T07:38:24.119Z,51.90
2018-09-05T07:40:57.201Z,55.77
2018-09-05T07:43:25.824Z,57.03
2018-09-05T07:45:58.667Z,48.20
2018-09-05T07:48:27.253Z,56.67
2018-09-05T07:50:55.845Z,56.60
2018-09-05T07:53:24.665Z,41.27
2018-09-05T07:55:53.716Z,47.13
2018-09-05T07:58:22.678Z,55.63
2018-09-05T08:00:57.075Z,50.85
2018-09-05T08:03:26.069Z,44.93
2018-09-05T08:05:55.458Z,49.45
2018-09-05T08:08:24.943Z,46.13
2018-09-05T08:10:53.929Z,45.23
2018-09-05T08:13:22.942Z,45.38
2018-09-05T08:15:51.832Z,44.83
2018-09-05T08:18:22.470Z,46.42
2018-09-05T08:20:51.535Z,42.13
2018-09-05T08:23:24.030Z,42.48
2018-09-05T08:25:53.033Z,49.03
2018-09-05T08:28:25.702Z,46.80
2018-09-05T08:30:55.159Z,49.10
2018-09-05T08:33:28.178Z,54.88
2018-09-05T08:35:57.450Z,47.98
2018-09-05T08:38:30.496Z,46.33
2018-09-05T08:41:03.888Z,50.10
2018-09-05T08:43:33.191Z,50.03
2018-09-05T08:46:01.856Z,48.07
2018-09-05T08:48:34.237Z,55.45
2018-09-05T08:51:03.345Z,49.03
2018-09-05T08:53:37.500Z,53.10
2018-09-05T08:56:06.606Z,53.07
2018-09-05T08:58:38.964Z,58.57
2018-09-05T09:01:07.924Z,53.60
2018-09-05T09:03:41.579Z,57.38
2018-09-05T09:06:10.558Z,48.70
2018-09-05T09:08:43.809Z,46.03
2018-09-05T09:11:12.813Z,46.60
2018-09-05T09:13:47.673Z,51.33
2018-09-05T09:16:16.703Z,50.23
2018-09-05T09:18:50.395Z,54.07
2018-09-05T09:21:19.206Z,51.30
2018-09-05T09:26:24.718Z,47.20
2018-09-05T09:28:57.807Z,52.45
2018-09-05T09:31:26.399Z,47.27
2018-09-05T09:34:00.679Z,42.43
2018-09-05T09:36:29.725Z,38.13
2018-09-05T09:39:02.286Z,38.73
2018-09-05T09:41:32.826Z,40.33
2018-09-05T09:44:05.319Z,31.50
2018-09-05T09:46:34.350Z,30.97
2018-09-05T09:49:07.620Z,24.98
2018-09-05T09:51:36.771Z,30.30
2018-09-05T09:54:10.201Z,31.75
2018-09-05T09:56:39.324Z,20.48
2018-09-05T09:59:13.562Z,22.23
2018-09-05T10:01:47.664Z,23.83
2018-09-05T10:04:21.801Z,26.80
2018-09-05T10:06:51.014Z,28.80
2018-09-05T10:09:25.061Z,26.62
2018-09-05T10:11:59.238Z,23.87
2018-09-05T10:14:32.610Z,27.05
2018-09-05T10:17:06.391Z,27.73
2018-09-05T10:19:35.453Z,32.53
2018-09-05T10:22:04.468Z,32.20
2018-09-05T10:24:34.964Z,34.25
2018-09-05T10:27:03.491Z,34.80
2018-09-05T10:29:32.922Z,30.70
2018-09-05T10:32:01.533Z,33.78
2018-09-05T10:34:31.376Z,34.92
2018-09-05T10:37:00.915Z,30.08
2018-09-05T10:39:43.231Z,33.35
2018-09-05T10:42:12.551Z,34.03
2018-09-05T10:44:41.113Z,35.35
2018-09-05T10:47:11.368Z,44.42
2018-09-05T10:49:40.369Z,42.35
2018-09-05T10:52:09.905Z,42.03
2018-09-05T10:54:41.695Z,45.10
2018-09-05T10:57:10.651Z,46.35
2018-09-05T10:59:44.502Z,55.55
2018-09-05T11:02:13.075Z,47.50
2018-09-05T11:04:49.361Z,45.78
2018-09-05T11:07:18.365Z,45.95
2018-09-05T11:09:50.436Z,42.20
2018-09-05T11:12:19.696Z,42.98
2018-09-05T11:14:53.011Z,40.03
2018-09-05T11:17:24.128Z,39.10
2018-09-05T11:19:57.401Z,41.25
2018-09-05T11:22:26.422Z,36.60
2018-09-05T11:25:08.578Z,39.67
2018-09-05T11:27:37.257Z,34.63
2018-09-05T11:30:06.639Z,36.73
2018-09-05T11:32:37.237Z,37.85
2018-09-05T11:35:06.609Z,37.10
2018-09-05T11:37:35.292Z,32.03
2018-09-05T11:40:16.865Z,34.13
2018-09-05T11:42:45.872Z,32.95
2018-09-05T11:45:14.720Z,33.25
2018-09-05T11:47:43.837Z,24.57
2018-09-05T11:50:16.503Z,29.65
2018-09-05T11:52:46.083Z,31.00
2018-09-05T11:55:19.055Z,27.73
2018-09-05T11:57:48.110Z,27.50
2018-09-05T12:00:19.789Z,30.80
2018-09-05T12:02:48.327Z,29.32
2018-09-05T12:05:24.583Z,32.80
2018-09-05T12:07:53.568Z,25.27
2018-09-05T12:10:25.992Z,30.25
2018-09-05T12:12:55.305Z,36.70
2018-09-05T12:15:36.719Z,28.10
2018-09-05T12:18:06.030Z,28.77
2018-09-05T12:20:34.545Z,33.50
2018-09-05T12:23:03.529Z,24.87
2018-09-05T12:25:33.351Z,30.97
2018-09-05T12:28:02.465Z,29.95
2018-09-05T12:30:36.947Z,30.55
2018-09-05T12:33:06.037Z,30.23
2018-09-05T12:35:38.202Z,29.42
2018-09-05T12:38:07.163Z,27.42
2018-09-05T12:40:41.539Z,28.12
2018-09-05T12:43:10.610Z,29.70
2018-09-05T12:45:43.748Z,31.05
2018-09-05T12:48:13.059Z,25.88
2018-09-05T12:50:53.947Z,27.13
2018-09-05T12:53:23.098Z,23.00
2018-09-05T12:55:51.356Z,27.22
2018-09-05T12:58:20.172Z,27.82
2018-09-05T13:00:52.852Z,28.20
2018-09-05T13:03:21.365Z,26.85
2018-09-05T13:05:54.768Z,30.35
2018-09-05T13:08:23.656Z,23.27
2018-09-05T13:10:58.356Z,25.55
2018-09-05T13:13:27.547Z,23.22
2018-09-05T13:16:00.858Z,27.40
2018-09-05T13:18:29.898Z,29.40
2018-09-05T13:21:02.853Z,23.20
2018-09-05T13:23:31.654Z,20.85
2018-09-05T13:26:05.373Z,23.42
2018-09-05T13:28:34.349Z,18.10
2018-09-05T13:31:16.603Z,23.30
2018-09-05T13:33:46.442Z,24.57
2018-09-05T13:36:15.536Z,21.02
2018-09-05T13:38:44.826Z,18.82
2018-09-05T13:41:15.490Z,21.42
2018-09-05T13:43:44.013Z,22.90
2018-09-05T13:46:17.664Z,23.35
2018-09-05T13:48:46.674Z,22.15
2018-09-05T13:51:20.370Z,32.75
2018-09-05T13:53:49.505Z,32.88
2018-09-05T13:56:23.314Z,32.05
2018-09-05T13:58:51.976Z,29.45
2018-09-05T14:01:25.619Z,31.55
2018-09-05T14:03:55.875Z,27.87
2018-09-05T14:06:29.002Z,34.25
2018-09-05T14:08:58.682Z,27.58
2018-09-05T14:11:30.049Z,30.15
2018-09-05T14:13:58.589Z,25.75
2018-09-05T14:16:32.557Z,31.68
2018-09-05T14:19:01.513Z,25.88
2018-09-05T14:21:43.142Z,28.20
2018-09-05T14:24:12.500Z,25.25
2018-09-05T14:26:41.282Z,27.62
2018-09-05T14:29:10.366Z,25.48
2018-09-05T14:31:41.730Z,25.72
2018-09-05T14:34:10.332Z,29.50
2018-09-05T14:36:44.081Z,27.07
2018-09-05T14:39:14.286Z,26.80
2018-09-05T14:41:47.261Z,28.15
2018-09-05T14:44:15.872Z,26.07
2018-09-05T14:46:58.060Z,31.20
2018-09-05T14:49:26.572Z,30.00
2018-09-05T14:51:55.615Z,27.20
2018-09-05T14:54:24.466Z,27.22
2018-09-05T14:56:56.842Z,29.30
2018-09-05T14:59:26.889Z,24.70
2018-09-05T15:02:08.417Z,27.75
2018-09-05T15:04:37.218Z,26.87
2018-09-05T15:07:06.243Z,31.20
2018-09-05T15:09:35.446Z,31.05
2018-09-05T15:12:05.313Z,29.00
2018-09-05T15:14:34.461Z,29.00
2018-09-05T15:17:09.970Z,28.38
2018-09-05T15:19:38.967Z,24.05
2018-09-05T15:22:20.416Z,27.67
2018-09-05T15:24:48.981Z,29.52
2018-09-05T15:27:18.482Z,28.85
2018-09-05T15:29:47.468Z,25.43
2018-09-05T15:32:16.467Z,27.55
2018-09-05T15:34:45.741Z,27.37
2018-09-05T15:37:17.931Z,26.42
2018-09-05T15:39:46.894Z,24.90
2018-09-05T15:42:19.811Z,22.98
2018-09-05T15:44:48.946Z,22.00
2018-09-05T15:47:22.321Z,21.82
2018-09-05T15:49:51.294Z,20.05
2018-09-05T15:52:24.577Z,22.93
2018-09-05T15:55:06.875Z,22.13
2018-09-05T15:57:35.953Z,23.27
2018-09-05T16:00:05.056Z,23.65
2018-09-05T16:02:34.794Z,20.52
2018-09-05T16:05:03.837Z,20.10
2018-09-05T16:07:36.178Z,22.15
2018-09-05T16:10:05.421Z,20.17
2018-09-05T16:12:37.518Z,23.85
2018-09-05T16:15:06.937Z,19.57
2018-09-05T16:17:39.492Z,18.27
2018-09-05T16:20:08.739Z,21.52
2018-09-05T16:22:42.583Z,18.90
2018-09-05T16:25:11.389Z,17.82
2018-09-05T16:27:53.835Z,20.45
2018-09-05T16:30:23.109Z,20.72
2018-09-05T16:32:51.659Z,21.93
2018-09-05T16:35:20.715Z,19.77
2018-09-05T16:37:50.914Z,18.92
2018-09-05T16:40:19.918Z,27.15
2018-09-05T16:42:53.458Z,26.33
2018-09-05T16:45:22.350Z,24.37
2018-09-05T16:47:55.517Z,25.63
2018-09-05T16:50:25.510Z,29.47
2018-09-05T16:52:59.158Z,26.73
2018-09-05T16:55:27.673Z,32.87
2018-09-05T16:58:01.883Z,32.60
2018-09-05T17:00:30.925Z,26.57
2018-09-05T17:03:04.468Z,27.73
2018-09-05T17:05:33.256Z,27.67
2018-09-05T17:10:41.578Z,30.90
2018-09-05T17:13:13.564Z,34.37
2018-09-05T17:15:42.640Z,32.80
2018-09-05T17:18:13.917Z,38.13
2018-09-05T17:20:42.497Z,34.87
2018-09-05T17:23:18.515Z,37.07
2018-09-05T17:25:47.315Z,40.00
2018-09-05T17:28:19.513Z,35.50
2018-09-05T17:30:48.655Z,32.10
2018-09-05T17:33:21.397Z,33.30
2018-09-05T17:35:50.759Z,37.03
2018-09-05T17:38:23.764Z,38.33
2018-09-05T17:40:52.764Z,38.60
2018-09-05T17:43:27.187Z,37.63
2018-09-05T17:45:56.214Z,35.20
2018-09-05T17:48:38.922Z,42.87
2018-09-05T17:51:07.448Z,38.17
2018-09-05T17:53:36.347Z,33.17
2018-09-05T17:56:05.430Z,32.50
2018-09-05T17:58:34.817Z,30.10
2018-09-05T18:01:05.581Z,31.10
2018-09-05T18:03:47.194Z,26.80
2018-09-05T18:06:16.045Z,24.80
2018-09-05T18:08:45.057Z,24.60
2018-09-05T18:11:14.035Z,25.93
2018-09-05T18:13:44.601Z,22.70
2018-09-05T18:16:14.084Z,22.87
2018-09-05T18:18:47.008Z,25.40
2018-09-05T18:21:16.013Z,23.57
2018-09-05T18:23:57.172Z,22.63
2018-09-05T18:26:26.506Z,25.13
2018-09-05T18:28:55.047Z,23.93
2018-09-05T18:31:24.153Z,21.17
2018-09-05T18:33:55.860Z,21.80
2018-09-05T18:36:24.459Z,23.13
2018-09-05T18:38:57.882Z,26.73
2018-09-05T18:41:26.710Z,24.93
2018-09-05T18:44:00.033Z,25.80
2018-09-05T18:46:29.011Z,23.53
2018-09-05T18:49:11.038Z,21.33
2018-09-05T18:51:40.064Z,23.40
2018-09-05T18:54:09.321Z,23.40
2018-09-05T18:56:37.897Z,25.23
2018-09-05T18:59:10.640Z,24.47
2018-09-05T19:01:39.477Z,26.87
2018-09-05T19:04:20.669Z,25.97
2018-09-05T19:06:49.991Z,27.70
2018-09-05T19:09:18.657Z,23.70
2018-09-05T19:11:47.198Z,26.30
2018-09-05T19:14:18.865Z,26.80
2018-09-05T19:16:47.906Z,25.33
2018-09-05T19:19:29.604Z,23.07
2018-09-05T19:21:58.461Z,26.30
2018-09-05T19:24:27.033Z,24.93
2018-09-05T19:26:55.557Z,23.40
2018-09-05T19:29:25.905Z,23.77
2018-09-05T19:31:54.939Z,22.70
2018-09-05T19:34:36.866Z,24.93
2018-09-05T19:37:06.213Z,22.80
2018-09-05T19:39:35.205Z,22.77
2018-09-05T19:42:04.221Z,22.33
2018-09-05T19:44:33.213Z,22.10
2018-09-05T19:47:02.594Z,22.83
2018-09-05T19:49:44.312Z,22.17
2018-09-05T19:52:13.125Z,25.00
2018-09-05T19:54:42.097Z,18.80
2018-09-05T19:57:13.216Z,22.00
2018-09-05T19:59:42.010Z,21.70
2018-09-05T20:02:11.169Z,21.13
2018-09-05T20:04:52.717Z,24.17
2018-09-05T20:07:21.545Z,22.53
2018-09-05T20:09:50.528Z,25.53
2018-09-05T20:12:19.521Z,23.37
2018-09-05T20:14:50.613Z,25.27
2018-09-05T20:17:19.710Z,26.43
2018-09-05T20:20:01.238Z,24.50
2018-09-05T20:22:30.025Z,25.90
2018-09-05T20:24:58.625Z,24.53
2018-09-05T20:27:27.639Z,28.33
2018-09-05T20:29:59.419Z,24.27
2018-09-05T20:32:27.942Z,21.00
2018-09-05T20:35:02.183Z,23.83
2018-09-05T20:37:30.953Z,25.80
2018-09-05T20:40:03.972Z,24.93
2018-09-05T20:42:32.952Z,25.27
2018-09-05T20:45:06.853Z,29.53
2018-09-05T20:47:36.111Z,23.27
2018-09-05T20:52:46.961Z,27.20
2018-09-05T20:55:15.951Z,25.23
2018-09-05T20:57:44.928Z,29.63
2018-09-05T21:00:17.495Z,31.27
2018-09-05T21:02:46.097Z,29.40
2018-09-05T21:05:26.861Z,31.43
2018-09-05T21:07:56.106Z,31.03
2018-09-05T21:10:25.122Z,32.27
2018-09-05T21:12:53.714Z,33.13
2018-09-05T21:15:24.508Z,32.70
2018-09-05T21:17:53.504Z,33.87
2018-09-05T21:20:35.319Z,35.83
2018-09-05T21:23:04.119Z,33.60
2018-09-05T21:25:32.653Z,35.43
2018-09-05T21:28:01.312Z,36.27
2018-09-05T21:30:32.109Z,42.23
2018-09-05T21:33:01.062Z,41.37
2018-09-05T21:35:42.392Z,40.63
2018-09-05T21:38:11.659Z,33.33
2018-09-05T21:40:40.636Z,41.33
2018-09-05T21:43:09.153Z,47.97
2018-09-05T21:45:40.066Z,42.77
2018-09-05T21:48:09.087Z,48.43
2018-09-05T21:50:50.456Z,52.00
2018-09-05T21:53:19.761Z,56.40
2018-09-05T21:55:48.734Z,61.20
2018-09-05T21:58:17.725Z,64.10
2018-09-05T22:00:48.796Z,60.83
2018-09-05T22:03:17.332Z,71.03
2018-09-05T22:05:58.994Z,75.20
2018-09-05T22:08:28.301Z,79.07
2018-09-05T22:10:59.228Z,74.83
2018-09-05T22:13:28.256Z,75.50
2018-09-05T22:15:57.485Z,76.00
2018-09-05T22:18:26.208Z,75.60
2018-09-05T22:20:59.426Z,83.53
2018-09-05T22:23:28.652Z,80.53
2018-09-05T22:26:02.122Z,83.97
2018-09-05T22:28:30.633Z,82.77
2018-09-05T22:31:07.753Z,84.10
2018-09-05T22:33:36.308Z,91.10
2018-09-05T22:36:09.282Z,88.13
2018-09-05T22:38:38.569Z,90.30
2018-09-05T22:41:14.437Z,97.00
2018-09-05T22:43:48.193Z,88.93
2018-09-05T22:46:28.199Z,91.97
2018-09-05T22:49:08.513Z,93.30
2018-09-05T22:51:56.487Z,99.43
2018-09-05T22:54:42.597Z,99.03
2018-09-05T22:57:31.488Z,92.37
2018-09-05T23:02:12.302Z,82.73
2018-09-05T23:06:56.330Z,86.80
2018-09-05T23:11:55.766Z,72.67
2018-09-05T23:14:48.273Z,66.57
2018-09-05T23:17:28.276Z,71.40
2018-09-05T23:20:08.090Z,66.70
2018-09-05T23:22:48.215Z,76.30
2018-09-05T23:25:16.763Z,78.50
2018-09-05T23:27:46.074Z,89.13
2018-09-05T23:30:14.582Z,83.90
2018-09-05T23:32:43.105Z,90.07
2018-09-05T23:35:11.923Z,94.67
2018-09-05T23:37:40.919Z,98.70
2018-09-05T23:40:09.438Z,98.83
2018-09-05T23:42:41.373Z,102.53
2018-09-05T23:45:10.386Z,104.10
2018-09-05T23:47:44.112Z,109.03
2018-09-05T23:50:13.448Z,103.83
2018-09-05T23:52:46.211Z,109.67
2018-09-05T23:55:14.745Z,111.90
2018-09-05T23:57:48.465Z,116.77
